Mari Lampton — WDE3648 — position and weather

sailwx.info

Track history (hours):
 
Tides and Currents Weather Stations Pressure Air Temp Water Temp Dewpoint Dewpoint Depression Visibility Wind Speed Wind Dir Waves Ship Positions

Mari Lampton

Owner: MAgnolia Marine Transport Company, Vicksburg, MS. More information available from US FCC via Universal Licensing System and Coast Guard Vessel Documentation Center.

Last reported at 2016-Apr-21 04:17 UTC. Time now 2016-Apr-29 10:07 UTC.
Position N 32°36' W 091°09'.
Warning: this ship's position is 8 days out of date.

Length 34 m.

Type: Towing. MMSI: 367342210.

Date/timePositionNaut miles runAvg speedWind from/ knotsBaromVisibWave heightAir tempDewpointWater temp
2016-Apr-21 04:17N 32°36' W 091°09'2 3.1
2016-Apr-21 03:33N 32°35' W 091°07'4 3.5
2016-Apr-21 02:32N 32°31' W 091°06'4 3.7
2016-Apr-21 01:33N 32°27' W 091°05'4 4.3
2016-Apr-21 00:33N 32°26' W 091°01'4 4.0
2016-Apr-20 23:33N 32°22' W 091°00'4 3.8
2016-Apr-20 22:33N 32°21' W 090°56'3 2.9
2016-Apr-20 21:33N 32°18' W 090°55'0 0.0
2016-Apr-20 20:33N 32°18' W 090°55'0 0.0
2016-Apr-20 19:33N 32°18' W 090°55'0 0.0
2016-Apr-20 18:33N 32°18' W 090°55'0 0.0
2016-Apr-20 17:33N 32°18' W 090°55'0 0.0
2016-Apr-20 16:33N 32°18' W 090°55'0 0.0
2016-Apr-20 15:33N 32°18' W 090°55'2 2.3
2016-Apr-20 14:33N 32°17' W 090°57'4 4.3
2016-Apr-20 13:33N 32°13' W 090°59'5 4.6
2016-Apr-20 12:33N 32°08' W 091°00'5 4.3
2016-Apr-20 11:27N 32°08' W 091°06'  
2016-Apr-14 14:32N 29°56' W 092°57'5 5.4
2016-Apr-14 13:33N 29°56' W 093°04'6 5.8
2016-Apr-14 12:33N 29°57' W 093°10'5 5.2
2016-Apr-14 11:33N 30°01' W 093°14'5 4.7
2016-Apr-14 10:33N 30°05' W 093°17'2 2.5
2016-Apr-14 09:33N 30°05' W 093°20'4 3.7
2016-Apr-14 08:33N 30°04' W 093°24'6 6.0
2016-Apr-14 07:33N 30°04' W 093°30'6 5.9
2016-Apr-14 06:33N 30°03' W 093°37'6 4.7
2016-Apr-14 05:24N 30°03' W 093°44'0 0.0
2016-Apr-14 04:33N 30°03' W 093°44'0 0.0
2016-Apr-14 03:31N 30°03' W 093°44'0 0.0
2016-Apr-14 02:33N 30°03' W 093°44'  
Track history (hours):
 
Tides and Currents Weather Stations Pressure Air Temp Water Temp Dewpoint Dewpoint Depression Visibility Wind Speed Wind Dir Waves Ship Positions

Mari Lampton

Owner: MAgnolia Marine Transport Company, Vicksburg, MS. More information available from US FCC via Universal Licensing System and Coast Guard Vessel Documentation Center.

Last reported at 2016-Apr-21 04:17 UTC. Time now 2016-Apr-29 10:07 UTC.
Position N 32°36' W 091°09'.
Warning: this ship's position is 8 days out of date.

Length 34 m.

Type: Towing. MMSI: 367342210.

Date/timePositionNaut miles runAvg speedWind from/ knotsBaromVisibWave heightAir tempDewpointWater temp
2016-Apr-21 04:17N 32°36' W 091°09'2 3.1
2016-Apr-21 03:33N 32°35' W 091°07'4 3.5
2016-Apr-21 02:32N 32°31' W 091°06'4 3.7
2016-Apr-21 01:33N 32°27' W 091°05'4 4.3
2016-Apr-21 00:33N 32°26' W 091°01'4 4.0
2016-Apr-20 23:33N 32°22' W 091°00'4 3.8
2016-Apr-20 22:33N 32°21' W 090°56'3 2.9
2016-Apr-20 21:33N 32°18' W 090°55'0 0.0
2016-Apr-20 20:33N 32°18' W 090°55'0 0.0
2016-Apr-20 19:33N 32°18' W 090°55'0 0.0
2016-Apr-20 18:33N 32°18' W 090°55'0 0.0
2016-Apr-20 17:33N 32°18' W 090°55'0 0.0
2016-Apr-20 16:33N 32°18' W 090°55'0 0.0
2016-Apr-20 15:33N 32°18' W 090°55'2 2.3
2016-Apr-20 14:33N 32°17' W 090°57'4 4.3
2016-Apr-20 13:33N 32°13' W 090°59'5 4.6
2016-Apr-20 12:33N 32°08' W 091°00'5 4.3
2016-Apr-20 11:27N 32°08' W 091°06'  
2016-Apr-14 14:32N 29°56' W 092°57'5 5.4
2016-Apr-14 13:33N 29°56' W 093°04'6 5.8
2016-Apr-14 12:33N 29°57' W 093°10'5 5.2
2016-Apr-14 11:33N 30°01' W 093°14'5 4.7
2016-Apr-14 10:33N 30°05' W 093°17'2 2.5
2016-Apr-14 09:33N 30°05' W 093°20'4 3.7
2016-Apr-14 08:33N 30°04' W 093°24'6 6.0
2016-Apr-14 07:33N 30°04' W 093°30'6 5.9
2016-Apr-14 06:33N 30°03' W 093°37'6 4.7
2016-Apr-14 05:24N 30°03' W 093°44'0 0.0
2016-Apr-14 04:33N 30°03' W 093°44'0 0.0
2016-Apr-14 03:31N 30°03' W 093°44'0 0.0
2016-Apr-14 02:33N 30°03' W 093°44'  

Dump ship's entire track history